createdAt,value
2019-05-10T00:00:50.275Z,47.50
2019-05-10T00:03:41.954Z,45.48
2019-05-10T00:06:33.928Z,43.38
2019-05-10T00:09:07.504Z,45.20
2019-05-10T00:15:05.073Z,43.80
2019-05-10T00:17:38.947Z,45.28
2019-05-10T00:20:13.244Z,46.58
2019-05-10T00:22:47.353Z,45.28
2019-05-10T00:25:21.437Z,46.88
2019-05-10T00:27:55.627Z,49.63
2019-05-10T00:30:29.667Z,50.70
2019-05-10T00:33:04.893Z,50.38
2019-05-10T00:35:38.969Z,49.85
2019-05-10T00:38:13.008Z,49.30
2019-05-10T00:40:47.090Z,49.38
2019-05-10T00:43:20.790Z,50.35
2019-05-10T00:45:54.847Z,50.67
2019-05-10T00:48:29.059Z,48.63
2019-05-10T00:51:03.115Z,47.62
2019-05-10T00:53:37.169Z,47.40
2019-05-10T00:56:11.236Z,47.62
2019-05-10T00:58:45.243Z,50.98
2019-05-10T01:01:19.312Z,52.95
2019-05-10T01:03:54.425Z,51.25
2019-05-10T01:06:28.956Z,55.70
2019-05-10T01:09:02.801Z,56.48
2019-05-10T01:11:36.854Z,58.95
2019-05-10T01:14:10.760Z,57.50
2019-05-10T01:16:44.936Z,59.10
2019-05-10T01:19:19.021Z,60.78
2019-05-10T01:21:54.830Z,63.48
2019-05-10T01:24:28.719Z,55.78
2019-05-10T01:27:02.786Z,59.53
2019-05-10T01:29:36.849Z,55.58
2019-05-10T01:32:10.835Z,54.20
2019-05-10T01:34:44.611Z,57.50
2019-05-10T01:37:18.682Z,58.33
2019-05-10T01:39:52.380Z,60.43
2019-05-10T01:42:26.936Z,61.25
2019-05-10T01:45:01.048Z,61.02
2019-05-10T01:47:35.129Z,60.58
2019-05-10T01:50:09.320Z,60.80
2019-05-10T01:52:43.350Z,57.43
2019-05-10T01:55:17.438Z,59.80
2019-05-10T01:57:51.396Z,59.98
2019-05-10T02:00:25.382Z,63.15
2019-05-10T02:02:59.178Z,72.90
2019-05-10T02:05:33.764Z,66.35
2019-05-10T02:08:07.662Z,70.30
2019-05-10T02:10:42.520Z,66.42
2019-05-10T02:13:16.496Z,59.05
2019-05-10T02:15:50.188Z,64.90
2019-05-10T02:18:24.267Z,65.75
2019-05-10T02:20:58.359Z,67.53
2019-05-10T02:23:32.089Z,61.77
2019-05-10T02:26:09.827Z,56.30
2019-05-10T02:28:43.830Z,57.45
2019-05-10T02:31:21.480Z,47.58
2019-05-10T02:33:53.326Z,49.30
2019-05-10T02:36:27.471Z,49.95
2019-05-10T02:39:04.899Z,50.10
2019-05-10T02:41:38.448Z,51.05
2019-05-10T02:44:12.274Z,51.25
2019-05-10T02:46:46.348Z,52.48
2019-05-10T02:49:20.340Z,57.05
2019-05-10T02:51:54.505Z,49.55
2019-05-10T02:54:28.989Z,55.95
2019-05-10T02:57:05.146Z,50.45
2019-05-10T02:59:39.516Z,50.45
2019-05-10T03:02:14.796Z,52.15
2019-05-10T03:04:49.017Z,52.45
2019-05-10T03:07:26.477Z,54.48
2019-05-10T03:10:03.757Z,56.08
2019-05-10T03:12:41.635Z,54.45
2019-05-10T03:15:15.862Z,54.03
2019-05-10T03:17:53.122Z,53.75
2019-05-10T03:20:28.878Z,52.27
2019-05-10T03:23:04.410Z,51.45
2019-05-10T03:25:38.377Z,52.70
2019-05-10T03:28:12.688Z,52.20
2019-05-10T03:30:46.769Z,67.37
2019-05-10T03:33:20.789Z,61.55
2019-05-10T03:35:54.808Z,58.10
2019-05-10T03:38:29.477Z,57.70
2019-05-10T03:41:03.973Z,59.25
2019-05-10T03:43:37.847Z,59.18
2019-05-10T03:46:11.955Z,57.53
2019-05-10T03:48:45.892Z,54.88
2019-05-10T03:51:19.976Z,57.30
2019-05-10T03:53:54.072Z,58.92
2019-05-10T03:56:30.904Z,61.70
2019-05-10T03:59:18.246Z,56.88
2019-05-10T04:01:52.609Z,55.90
2019-05-10T04:04:26.560Z,53.33
2019-05-10T04:07:00.695Z,55.12
2019-05-10T04:09:34.738Z,56.53
2019-05-10T04:12:08.821Z,52.62
2019-05-10T04:14:42.862Z,53.20
2019-05-10T04:17:16.578Z,51.77
2019-05-10T04:19:50.529Z,51.73
2019-05-10T04:22:24.663Z,56.15
2019-05-10T04:24:58.285Z,55.70
2019-05-10T04:27:33.343Z,55.55
2019-05-10T04:30:09.033Z,57.50
2019-05-10T04:32:42.919Z,57.27
2019-05-10T04:35:16.809Z,55.73
2019-05-10T04:37:51.701Z,58.17
2019-05-10T04:40:26.860Z,55.30
2019-05-10T04:43:00.641Z,55.38
2019-05-10T04:45:34.516Z,54.93
2019-05-10T04:48:08.576Z,55.25
2019-05-10T04:50:42.337Z,52.45
2019-05-10T04:53:16.355Z,51.92
2019-05-10T04:55:50.309Z,51.85
2019-05-10T04:58:24.519Z,53.13
2019-05-10T05:00:58.580Z,53.13
2019-05-10T05:03:32.701Z,53.45
2019-05-10T05:06:06.681Z,52.88
2019-05-10T05:08:40.740Z,52.65
2019-05-10T05:11:14.496Z,54.98
2019-05-10T05:13:48.595Z,50.43
2019-05-10T05:16:22.271Z,51.85
2019-05-10T05:18:56.391Z,51.20
2019-05-10T05:21:30.525Z,51.37
2019-05-10T05:24:04.233Z,50.63
2019-05-10T05:26:38.338Z,52.90
2019-05-10T05:29:12.345Z,53.15
2019-05-10T05:31:46.347Z,53.15
2019-05-10T05:34:20.252Z,60.63
2019-05-10T05:36:56.060Z,59.63
2019-05-10T05:39:30.089Z,56.77
2019-05-10T05:42:04.605Z,57.93
2019-05-10T05:44:38.847Z,57.35
2019-05-10T05:47:12.897Z,58.28
2019-05-10T05:49:46.777Z,51.98
2019-05-10T05:52:20.769Z,58.00
2019-05-10T05:54:57.647Z,54.93
2019-05-10T05:57:30.186Z,55.35
2019-05-10T06:00:06.659Z,61.08
2019-05-10T06:02:44.947Z,55.55
2019-05-10T06:05:32.237Z,57.17
2019-05-10T06:07:52.991Z,59.08
2019-05-10T06:10:27.088Z,55.40
2019-05-10T06:13:01.231Z,54.05
2019-05-10T06:15:37.881Z,58.13
2019-05-10T06:18:12.167Z,62.93
2019-05-10T06:20:47.292Z,54.42
2019-05-10T06:23:21.300Z,53.20
2019-05-10T06:25:55.538Z,62.88
2019-05-10T06:28:56.993Z,51.63
2019-05-10T06:31:05.583Z,47.03
2019-05-10T06:33:39.678Z,54.80
2019-05-10T06:36:14.717Z,64.05
2019-05-10T06:38:50.195Z,81.15
2019-05-10T06:41:24.123Z,80.83
2019-05-10T06:43:58.246Z,60.35
2019-05-10T06:46:33.588Z,61.53
2019-05-10T06:49:10.904Z,54.98
2019-05-10T06:51:50.967Z,54.40
2019-05-10T06:54:24.828Z,53.52
2019-05-10T06:56:59.041Z,51.63
2019-05-10T06:59:33.131Z,53.83
2019-05-10T07:02:07.324Z,74.00
2019-05-10T07:04:41.503Z,80.22
2019-05-10T07:07:22.372Z,85.42
2019-05-10T07:10:15.842Z,95.05
2019-05-10T07:12:30.119Z,77.92
2019-05-10T07:15:05.207Z,76.72
2019-05-10T07:17:45.449Z,72.92
2019-05-10T07:20:14.541Z,56.00
2019-05-10T07:23:00.214Z,56.18
2019-05-10T07:25:32.331Z,65.52
2019-05-10T07:28:09.378Z,57.98
2019-05-10T07:30:42.387Z,60.20
2019-05-10T07:33:17.031Z,60.67
2019-05-10T07:35:51.209Z,51.60
2019-05-10T07:38:30.686Z,59.98
2019-05-10T07:41:01.010Z,56.28
2019-05-10T07:43:35.681Z,60.05
2019-05-10T07:46:12.563Z,56.48
2019-05-10T07:48:50.619Z,62.38
2019-05-10T07:51:22.962Z,61.80
2019-05-10T07:54:04.631Z,51.50
2019-05-10T07:56:39.107Z,56.68
2019-05-10T07:59:10.511Z,62.03
2019-05-10T08:01:48.638Z,67.65
2019-05-10T08:04:28.966Z,70.57
2019-05-10T08:06:55.689Z,69.67
2019-05-10T08:09:31.704Z,63.65
2019-05-10T08:12:05.606Z,62.85
2019-05-10T08:14:44.613Z,61.48
2019-05-10T08:17:15.402Z,65.12
2019-05-10T08:19:49.299Z,58.33
2019-05-10T08:22:23.089Z,56.15
2019-05-10T08:24:57.325Z,59.42
2019-05-10T08:27:32.481Z,68.30
2019-05-10T08:30:22.585Z,59.10
2019-05-10T08:32:46.248Z,58.80
2019-05-10T08:35:20.371Z,51.28
2019-05-10T08:37:57.495Z,58.00
2019-05-10T08:40:36.946Z,72.72
2019-05-10T08:43:10.932Z,64.53
2019-05-10T08:45:49.047Z,66.50
2019-05-10T08:48:19.388Z,52.85
2019-05-10T08:50:57.388Z,58.98
2019-05-10T08:53:32.849Z,58.78
2019-05-10T08:56:07.550Z,48.68
2019-05-10T08:58:42.261Z,52.13
2019-05-10T09:01:26.677Z,51.00
2019-05-10T09:03:59.144Z,52.27
2019-05-10T09:06:29.422Z,53.05
2019-05-10T09:09:08.148Z,50.35
2019-05-10T09:11:43.960Z,55.95
2019-05-10T09:14:19.996Z,52.10
2019-05-10T09:17:00.813Z,52.13
2019-05-10T09:19:37.468Z,45.80
2019-05-10T09:22:03.067Z,45.17
2019-05-10T09:24:43.233Z,50.52
2019-05-10T09:27:12.932Z,52.08
2019-05-10T09:29:47.007Z,54.85
2019-05-10T09:32:28.662Z,49.95
2019-05-10T09:34:59.823Z,45.52
2019-05-10T09:37:33.283Z,40.92
2019-05-10T09:40:13.087Z,40.12
2019-05-10T09:42:45.801Z,31.75
2019-05-10T09:45:22.174Z,37.35
2019-05-10T09:47:55.553Z,34.70
2019-05-10T09:50:30.462Z,35.17
2019-05-10T09:53:07.388Z,26.50
2019-05-10T09:55:45.502Z,29.30
2019-05-10T09:58:21.775Z,23.25
2019-05-10T10:00:52.839Z,27.87
2019-05-10T10:03:29.700Z,25.97
2019-05-10T10:06:07.592Z,26.02
2019-05-10T10:08:43.454Z,23.52
2019-05-10T10:22:13.238Z,17.17
2019-05-10T10:24:48.908Z,16.95
2019-05-10T10:37:31.354Z,18.95
2019-05-10T10:40:08.468Z,14.13
2019-05-10T10:42:41.119Z,13.88
2019-05-10T10:45:17.405Z,13.55
2019-05-10T10:47:50.814Z,12.53
2019-05-10T10:50:24.559Z,11.53
2019-05-10T10:52:58.294Z,11.80
2019-05-10T10:55:36.595Z,12.15
2019-05-10T10:58:07.605Z,12.03
2019-05-10T11:00:41.735Z,12.05
2019-05-10T11:03:15.403Z,9.75
2019-05-10T11:05:49.118Z,10.53
2019-05-10T11:08:22.868Z,9.90
2019-05-10T11:10:56.560Z,9.45
2019-05-10T11:13:44.000Z,8.75
2019-05-10T11:16:10.889Z,8.60
2019-05-10T11:18:41.822Z,8.23
2019-05-10T11:21:15.593Z,9.38
2019-05-10T11:23:49.303Z,9.45
2019-05-10T11:26:26.935Z,10.85
2019-05-10T11:28:58.275Z,10.63
2019-05-10T11:31:32.051Z,10.00
2019-05-10T11:34:06.312Z,10.55
2019-05-10T11:36:40.571Z,9.65
2019-05-10T11:39:26.131Z,9.13
2019-05-10T11:42:01.084Z,10.13
2019-05-10T11:44:52.828Z,9.38
2019-05-10T11:47:22.907Z,10.68
2019-05-10T11:49:47.827Z,10.53
2019-05-10T11:52:21.836Z,10.32
2019-05-10T11:54:55.672Z,10.00
2019-05-10T11:57:32.437Z,10.80
2019-05-10T12:00:14.274Z,11.20
2019-05-10T12:03:03.230Z,11.93
2019-05-10T12:05:26.344Z,11.70
2019-05-10T12:08:01.956Z,11.03
2019-05-10T12:10:41.182Z,11.53
2019-05-10T12:13:19.371Z,10.95
2019-05-10T12:15:46.610Z,8.20
2019-05-10T12:18:26.598Z,7.85
2019-05-10T12:21:08.668Z,8.30
2019-05-10T12:23:32.726Z,9.13
2019-05-10T12:28:45.729Z,8.63
2019-05-10T12:31:21.054Z,8.18
2019-05-10T12:34:02.520Z,8.40
2019-05-10T12:36:31.438Z,8.73
2019-05-10T12:39:08.272Z,9.35
2019-05-10T12:41:47.729Z,7.15
2019-05-10T12:44:17.647Z,6.40
2019-05-10T12:46:54.178Z,6.58
2019-05-10T12:49:28.144Z,7.08
2019-05-10T12:52:03.337Z,6.80
2019-05-10T12:54:37.636Z,6.75
2019-05-10T12:57:11.788Z,7.05
2019-05-10T12:59:48.627Z,6.78
2019-05-10T13:02:22.561Z,7.12
2019-05-10T13:04:56.619Z,6.67
2019-05-10T13:07:30.721Z,7.15
2019-05-10T13:10:07.756Z,7.30
2019-05-10T13:12:44.548Z,5.75
2019-05-10T13:15:16.728Z,7.00
2019-05-10T13:17:52.833Z,7.60
2019-05-10T13:20:30.856Z,7.55
2019-05-10T13:23:03.471Z,6.97
2019-05-10T13:25:37.249Z,7.80
2019-05-10T13:28:11.937Z,7.03
2019-05-10T13:30:45.751Z,6.55
2019-05-10T13:33:28.675Z,7.30
2019-05-10T13:35:56.600Z,7.00
2019-05-10T13:38:30.591Z,7.72
2019-05-10T13:41:04.355Z,7.55
2019-05-10T13:43:39.275Z,7.20
2019-05-10T13:46:13.051Z,6.92
2019-05-10T13:48:48.241Z,7.33
2019-05-10T13:51:22.453Z,7.72
2019-05-10T13:53:58.932Z,7.78
2019-05-10T13:56:32.911Z,6.95
2019-05-10T13:59:15.509Z,8.35
2019-05-10T14:01:44.229Z,6.70
2019-05-10T14:04:17.766Z,7.22
2019-05-10T14:06:51.920Z,7.30
2019-05-10T14:09:28.731Z,6.85
2019-05-10T14:12:06.124Z,8.00
2019-05-10T14:14:39.914Z,7.05
2019-05-10T14:17:14.079Z,6.78
2019-05-10T14:19:47.798Z,6.58
2019-05-10T14:22:22.238Z,6.15
2019-05-10T14:24:59.142Z,6.92
2019-05-10T14:27:35.898Z,7.42
2019-05-10T14:30:13.410Z,6.95
2019-05-10T14:32:47.392Z,6.80
2019-05-10T14:35:22.674Z,7.45
2019-05-10T14:38:07.503Z,7.33
2019-05-10T14:40:35.600Z,7.05
2019-05-10T14:43:09.421Z,7.10
2019-05-10T14:45:43.622Z,7.92
2019-05-10T14:48:27.698Z,8.43
2019-05-10T14:50:52.780Z,8.30
2019-05-10T14:53:27.381Z,7.62
2019-05-10T14:56:01.668Z,8.18
2019-05-10T14:58:36.273Z,8.15
2019-05-10T15:01:18.516Z,9.05
2019-05-10T15:03:54.760Z,8.95
2019-05-10T15:06:30.955Z,8.70
2019-05-10T15:09:06.446Z,9.23
2019-05-10T15:11:41.116Z,8.90
2019-05-10T15:14:15.185Z,8.60
2019-05-10T15:16:49.290Z,7.05
2019-05-10T15:19:26.439Z,6.47
2019-05-10T15:21:59.029Z,6.80
2019-05-10T15:24:33.100Z,5.87
2019-05-10T15:27:06.985Z,6.20
2019-05-10T15:29:41.095Z,6.08
2019-05-10T15:32:15.158Z,6.22
2019-05-10T15:35:05.139Z,6.47
2019-05-10T15:37:25.086Z,6.67
2019-05-10T15:40:00.585Z,6.33
2019-05-10T15:42:36.208Z,6.33
2019-05-10T15:45:14.250Z,6.65
2019-05-10T15:47:51.107Z,6.25
2019-05-10T15:50:23.045Z,6.47
2019-05-10T15:52:57.222Z,6.45
2019-05-10T15:55:30.925Z,6.33
2019-05-10T15:58:06.239Z,6.62
2019-05-10T16:00:41.646Z,6.95
2019-05-10T16:03:15.845Z,6.60
2019-05-10T16:06:00.285Z,5.83
2019-05-10T16:08:30.529Z,5.58
2019-05-10T16:11:03.119Z,5.78
2019-05-10T16:13:38.003Z,6.80
2019-05-10T16:16:13.428Z,5.60
2019-05-10T16:18:47.089Z,6.25
2019-05-10T16:21:20.749Z,6.08
2019-05-10T16:23:54.832Z,5.50
2019-05-10T16:26:28.478Z,5.45
2019-05-10T16:29:03.510Z,6.15
2019-05-10T16:31:37.226Z,5.92
2019-05-10T16:34:11.033Z,5.47
2019-05-10T16:36:46.753Z,4.60
2019-05-10T16:39:20.875Z,5.28
2019-05-10T16:41:54.614Z,5.30
2019-05-10T16:44:32.400Z,5.78
2019-05-10T16:47:08.046Z,5.33
2019-05-10T16:49:42.058Z,5.33
2019-05-10T16:52:19.620Z,5.33
2019-05-10T16:54:51.498Z,5.80
2019-05-10T16:57:25.553Z,5.90
2019-05-10T17:00:01.979Z,6.17
2019-05-10T17:02:36.759Z,6.00
2019-05-10T17:05:15.184Z,5.92
2019-05-10T17:07:46.540Z,5.78
2019-05-10T17:10:20.470Z,5.95
2019-05-10T17:12:54.696Z,6.60
2019-05-10T17:15:33.740Z,6.33
2019-05-10T17:18:10.430Z,5.55
2019-05-10T17:20:45.508Z,6.33
2019-05-10T17:23:16.723Z,6.12
2019-05-10T17:25:50.704Z,6.85
2019-05-10T17:28:35.143Z,5.97
2019-05-10T17:31:07.826Z,6.08
2019-05-10T17:33:42.801Z,15.30
2019-05-10T17:36:19.718Z,7.47
2019-05-10T17:38:53.551Z,35.73
2019-05-10T17:41:27.075Z,68.97
2019-05-10T17:44:03.232Z,28.83
2019-05-10T17:46:37.831Z,36.95
2019-05-10T17:49:11.396Z,9.95
2019-05-10T17:51:46.011Z,27.02
2019-05-10T17:54:20.580Z,69.80
2019-05-10T17:56:54.365Z,47.70
2019-05-10T17:59:27.955Z,77.58
2019-05-10T18:02:01.797Z,106.25
2019-05-10T18:04:35.875Z,116.42
2019-05-10T18:07:10.550Z,46.90
2019-05-10T18:09:44.172Z,45.70
2019-05-10T18:12:20.488Z,24.27
2019-05-10T18:14:55.745Z,26.75
2019-05-10T18:17:30.178Z,23.05
2019-05-10T18:20:04.718Z,18.10
2019-05-10T18:22:42.991Z,15.10
2019-05-10T18:25:20.622Z,14.85
2019-05-10T18:27:50.341Z,13.15
2019-05-10T18:30:24.012Z,10.70
2019-05-10T18:32:58.038Z,11.40
2019-05-10T18:35:32.011Z,13.70
2019-05-10T18:38:05.671Z,11.33
2019-05-10T18:40:39.676Z,11.20
2019-05-10T18:43:13.281Z,13.05
2019-05-10T18:45:46.938Z,12.03
2019-05-10T18:48:23.050Z,11.10
2019-05-10T18:50:56.720Z,54.65
2019-05-10T18:53:30.495Z,97.80
2019-05-10T18:56:04.661Z,26.37
2019-05-10T18:58:38.351Z,39.40
2019-05-10T19:01:12.021Z,8.70
2019-05-10T19:03:46.002Z,19.23
2019-05-10T19:06:20.612Z,26.97
2019-05-10T19:08:54.846Z,34.13
2019-05-10T19:11:33.235Z,31.93
2019-05-10T19:14:04.885Z,29.07
2019-05-10T19:16:38.829Z,19.75
2019-05-10T19:19:12.933Z,20.00
2019-05-10T19:21:46.933Z,14.53
2019-05-10T19:24:24.298Z,13.53
2019-05-10T19:26:56.317Z,13.80
2019-05-10T19:29:30.450Z,17.30
2019-05-10T19:32:04.637Z,9.58
2019-05-10T19:34:38.231Z,10.13
2019-05-10T19:37:26.816Z,11.15
2019-05-10T19:39:47.082Z,11.05
2019-05-10T19:42:20.945Z,10.75
2019-05-10T19:44:54.940Z,11.80
2019-05-10T19:47:28.874Z,15.38
2019-05-10T19:50:02.841Z,16.07
2019-05-10T19:52:36.655Z,15.55
2019-05-10T19:55:12.870Z,15.78
2019-05-10T19:57:49.562Z,13.20
2019-05-10T20:00:22.340Z,21.57
2019-05-10T20:02:56.498Z,16.10
2019-05-10T20:05:30.187Z,24.55
2019-05-10T20:08:04.309Z,18.23
2019-05-10T20:10:38.203Z,14.63
2019-05-10T20:13:12.076Z,12.90
2019-05-10T20:15:45.770Z,12.53
2019-05-10T20:18:19.480Z,13.38
2019-05-10T20:20:53.052Z,13.58
2019-05-10T20:23:29.968Z,13.30
2019-05-10T20:26:04.042Z,12.90
2019-05-10T20:28:37.774Z,13.65
2019-05-10T20:31:11.344Z,12.75
2019-05-10T20:33:45.109Z,13.30
2019-05-10T20:36:18.991Z,11.83
2019-05-10T20:38:52.637Z,12.93
2019-05-10T20:41:27.313Z,12.25
2019-05-10T20:44:00.925Z,13.93
2019-05-10T20:46:34.676Z,12.70
2019-05-10T20:49:08.351Z,14.47
2019-05-10T20:51:46.011Z,13.60
2019-05-10T20:54:19.661Z,15.15
2019-05-10T20:56:53.475Z,15.38
2019-05-10T20:59:27.180Z,14.23
2019-05-10T21:02:00.838Z,13.95
2019-05-10T21:04:34.972Z,14.07
2019-05-10T21:07:08.639Z,14.87
2019-05-10T21:09:42.350Z,14.68
2019-05-10T21:12:15.963Z,15.50
2019-05-10T21:14:49.589Z,15.38
2019-05-10T21:17:23.260Z,13.90
2019-05-10T21:19:57.365Z,14.38
2019-05-10T21:22:30.942Z,13.65
2019-05-10T21:25:06.668Z,16.93
2019-05-10T21:27:46.359Z,15.75
2019-05-10T21:30:20.361Z,16.65
2019-05-10T21:32:56.846Z,16.95
2019-05-10T21:35:30.452Z,17.17
2019-05-10T21:38:04.528Z,16.60
2019-05-10T21:40:41.425Z,15.08
2019-05-10T21:43:15.006Z,16.37
2019-05-10T21:45:49.587Z,17.65
2019-05-10T21:51:13.668Z,17.30
2019-05-10T21:56:43.562Z,17.02
2019-05-10T21:59:17.272Z,16.97
2019-05-10T22:01:50.849Z,16.85
2019-05-10T22:04:26.179Z,17.30
2019-05-10T22:07:00.024Z,18.37
2019-05-10T22:09:33.751Z,20.35
2019-05-10T22:12:07.921Z,23.18
2019-05-10T22:14:41.641Z,21.80
2019-05-10T22:17:16.489Z,18.73
2019-05-10T22:19:50.570Z,15.98
2019-05-10T22:22:24.491Z,15.65
2019-05-10T22:24:58.080Z,15.50
2019-05-10T22:27:32.088Z,15.20
2019-05-10T22:30:12.353Z,18.23
2019-05-10T22:32:46.229Z,18.40
2019-05-10T22:35:19.986Z,16.82
2019-05-10T22:37:53.553Z,17.67
2019-05-10T22:40:46.454Z,16.48
2019-05-10T22:43:20.335Z,15.63
2019-05-10T22:45:54.021Z,16.23
2019-05-10T22:48:27.707Z,16.70
2019-05-10T22:51:02.082Z,17.25
2019-05-10T22:53:35.765Z,15.58
2019-05-10T22:56:09.482Z,17.82
2019-05-10T22:58:43.160Z,16.40
2019-05-10T23:01:16.859Z,16.30
2019-05-10T23:03:50.539Z,16.40
2019-05-10T23:06:24.243Z,17.55
2019-05-10T23:08:57.920Z,16.93
2019-05-10T23:11:31.907Z,16.80
2019-05-10T23:14:06.639Z,16.73
2019-05-10T23:16:40.354Z,18.35
2019-05-10T23:19:13.969Z,18.95
2019-05-10T23:21:47.694Z,18.30
2019-05-10T23:24:22.842Z,19.57
2019-05-10T23:26:56.527Z,18.82
2019-05-10T23:29:30.099Z,18.20
2019-05-10T23:32:03.712Z,19.85
2019-05-10T23:34:37.366Z,19.35
2019-05-10T23:37:11.118Z,20.10
2019-05-10T23:39:44.786Z,18.15
2019-05-10T23:42:18.590Z,19.50
2019-05-10T23:44:52.281Z,18.92
2019-05-10T23:47:25.980Z,18.40
2019-05-10T23:50:01.579Z,17.73
2019-05-10T23:52:34.988Z,17.32
2019-05-10T23:55:08.827Z,18.07
2019-05-10T23:57:47.886Z,17.90
